sensor_id;sensor_type;location;lat;lon;timestamp;P1;durP1;ratioP1;P2;durP2;ratioP2
10096;SDS011;5087;42.662;23.466;2024-02-04T00:02:00;3.40;;;3.40;;
10096;SDS011;5087;42.662;23.466;2024-02-04T00:04:28;4.00;;;3.90;;
10096;SDS011;5087;42.662;23.466;2024-02-04T00:06:57;4.20;;;4.10;;
10096;SDS011;5087;42.662;23.466;2024-02-04T00:09:24;4.30;;;4.20;;
10096;SDS011;5087;42.662;23.466;2024-02-04T00:11:55;4.67;;;4.57;;
10096;SDS011;5087;42.662;23.466;2024-02-04T00:14:23;4.83;;;4.73;;
10096;SDS011;5087;42.662;23.466;2024-02-04T00:16:50;5.07;;;4.97;;
10096;SDS011;5087;42.662;23.466;2024-02-04T00:19:17;5.23;;;5.13;;
10096;SDS011;5087;42.662;23.466;2024-02-04T00:21:44;5.40;;;5.30;;
10096;SDS011;5087;42.662;23.466;2024-02-04T00:24:12;5.43;;;5.33;;
10096;SDS011;5087;42.662;23.466;2024-02-04T00:26:41;5.63;;;5.53;;
10096;SDS011;5087;42.662;23.466;2024-02-04T00:29:10;6.20;;;6.10;;
10096;SDS011;5087;42.662;23.466;2024-02-04T00:31:37;6.80;;;6.60;;
10096;SDS011;5087;42.662;23.466;2024-02-04T00:34:04;6.40;;;6.30;;
10096;SDS011;5087;42.662;23.466;2024-02-04T00:36:31;6.43;;;6.33;;
10096;SDS011;5087;42.662;23.466;2024-02-04T00:38:58;6.83;;;6.63;;
10096;SDS011;5087;42.662;23.466;2024-02-04T00:41:25;6.57;;;6.47;;
10096;SDS011;5087;42.662;23.466;2024-02-04T00:43:52;6.10;;;6.00;;
10096;SDS011;5087;42.662;23.466;2024-02-04T00:46:21;6.03;;;5.93;;
10096;SDS011;5087;42.662;23.466;2024-02-04T00:48:48;5.70;;;5.60;;
10096;SDS011;5087;42.662;23.466;2024-02-04T00:51:15;5.73;;;5.63;;
10096;SDS011;5087;42.662;23.466;2024-02-04T00:53:43;5.97;;;5.87;;
10096;SDS011;5087;42.662;23.466;2024-02-04T00:56:10;5.40;;;5.30;;
10096;SDS011;5087;42.662;23.466;2024-02-04T00:58:37;5.03;;;4.93;;
10096;SDS011;5087;42.662;23.466;2024-02-04T01:01:07;4.63;;;4.53;;
10096;SDS011;5087;42.662;23.466;2024-02-04T01:03:37;4.57;;;4.47;;
10096;SDS011;5087;42.662;23.466;2024-02-04T01:06:04;4.50;;;4.40;;
10096;SDS011;5087;42.662;23.466;2024-02-04T01:08:31;4.20;;;4.10;;
10096;SDS011;5087;42.662;23.466;2024-02-04T01:10:59;4.20;;;4.10;;
10096;SDS011;5087;42.662;23.466;2024-02-04T01:13:27;3.60;;;3.60;;
10096;SDS011;5087;42.662;23.466;2024-02-04T01:15:54;3.70;;;3.70;;
10096;SDS011;5087;42.662;23.466;2024-02-04T01:18:21;3.70;;;3.70;;
10096;SDS011;5087;42.662;23.466;2024-02-04T01:20:50;3.50;;;3.50;;
10096;SDS011;5087;42.662;23.466;2024-02-04T01:23:17;3.10;;;3.10;;
10096;SDS011;5087;42.662;23.466;2024-02-04T01:25:45;3.40;;;3.40;;
10096;SDS011;5087;42.662;23.466;2024-02-04T01:28:12;3.20;;;3.20;;
10096;SDS011;5087;42.662;23.466;2024-02-04T01:30:42;3.13;;;3.13;;
10096;SDS011;5087;42.662;23.466;2024-02-04T01:33:09;3.20;;;3.20;;
10096;SDS011;5087;42.662;23.466;2024-02-04T01:35:36;3.23;;;3.23;;
10096;SDS011;5087;42.662;23.466;2024-02-04T01:38:05;3.40;;;3.40;;
10096;SDS011;5087;42.662;23.466;2024-02-04T01:40:32;3.60;;;3.60;;
10096;SDS011;5087;42.662;23.466;2024-02-04T01:42:59;4.20;;;4.10;;
10096;SDS011;5087;42.662;23.466;2024-02-04T01:45:26;4.17;;;4.07;;
10096;SDS011;5087;42.662;23.466;2024-02-04T01:47:53;4.60;;;4.50;;
10096;SDS011;5087;42.662;23.466;2024-02-04T01:50:21;4.30;;;4.20;;
10096;SDS011;5087;42.662;23.466;2024-02-04T01:52:49;4.80;;;4.70;;
10096;SDS011;5087;42.662;23.466;2024-02-04T01:55:20;5.20;;;5.10;;
10096;SDS011;5087;42.662;23.466;2024-02-04T01:57:48;5.67;;;5.57;;
10096;SDS011;5087;42.662;23.466;2024-02-04T02:00:15;5.90;;;5.80;;
10096;SDS011;5087;42.662;23.466;2024-02-04T02:02:43;5.67;;;5.57;;
10096;SDS011;5087;42.662;23.466;2024-02-04T02:05:13;5.33;;;5.23;;
10096;SDS011;5087;42.662;23.466;2024-02-04T02:07:40;5.27;;;5.17;;
10096;SDS011;5087;42.662;23.466;2024-02-04T02:10:12;5.37;;;5.27;;
10096;SDS011;5087;42.662;23.466;2024-02-04T02:12:42;5.70;;;5.60;;
10096;SDS011;5087;42.662;23.466;2024-02-04T02:15:20;6.00;;;5.90;;
10096;SDS011;5087;42.662;23.466;2024-02-04T02:17:51;6.17;;;6.07;;
10096;SDS011;5087;42.662;23.466;2024-02-04T02:20:23;5.27;;;5.17;;
10096;SDS011;5087;42.662;23.466;2024-02-04T02:22:57;4.90;;;4.80;;
10096;SDS011;5087;42.662;23.466;2024-02-04T02:25:34;5.30;;;5.20;;
10096;SDS011;5087;42.662;23.466;2024-02-04T02:28:04;6.30;;;6.20;;
10096;SDS011;5087;42.662;23.466;2024-02-04T02:30:31;6.10;;;6.00;;
10096;SDS011;5087;42.662;23.466;2024-02-04T02:32:58;5.27;;;5.17;;
10096;SDS011;5087;42.662;23.466;2024-02-04T02:35:26;5.30;;;5.20;;
10096;SDS011;5087;42.662;23.466;2024-02-04T02:37:55;5.10;;;5.00;;
10096;SDS011;5087;42.662;23.466;2024-02-04T02:40:29;4.77;;;4.67;;
10096;SDS011;5087;42.662;23.466;2024-02-04T02:43:02;4.80;;;4.70;;
10096;SDS011;5087;42.662;23.466;2024-02-04T02:45:33;4.67;;;4.57;;
10096;SDS011;5087;42.662;23.466;2024-02-04T02:48:01;4.80;;;4.70;;
10096;SDS011;5087;42.662;23.466;2024-02-04T02:50:40;4.57;;;4.47;;
10096;SDS011;5087;42.662;23.466;2024-02-04T02:53:08;3.80;;;3.80;;
10096;SDS011;5087;42.662;23.466;2024-02-04T02:55:35;3.70;;;3.70;;
10096;SDS011;5087;42.662;23.466;2024-02-04T02:58:03;3.77;;;3.77;;
10096;SDS011;5087;42.662;23.466;2024-02-04T03:00:31;3.10;;;3.10;;
10096;SDS011;5087;42.662;23.466;2024-02-04T03:02:58;3.37;;;3.37;;
10096;SDS011;5087;42.662;23.466;2024-02-04T03:05:25;3.30;;;3.30;;
10096;SDS011;5087;42.662;23.466;2024-02-04T03:07:52;3.20;;;3.20;;
10096;SDS011;5087;42.662;23.466;2024-02-04T03:10:19;3.13;;;3.13;;
10096;SDS011;5087;42.662;23.466;2024-02-04T03:12:48;3.50;;;3.50;;
10096;SDS011;5087;42.662;23.466;2024-02-04T03:15:17;3.50;;;3.50;;
10096;SDS011;5087;42.662;23.466;2024-02-04T03:17:44;3.90;;;3.90;;
10096;SDS011;5087;42.662;23.466;2024-02-04T03:20:14;3.17;;;3.17;;
10096;SDS011;5087;42.662;23.466;2024-02-04T03:22:41;3.00;;;3.00;;
10096;SDS011;5087;42.662;23.466;2024-02-04T03:25:10;2.90;;;2.90;;
10096;SDS011;5087;42.662;23.466;2024-02-04T03:27:39;3.10;;;3.10;;
10096;SDS011;5087;42.662;23.466;2024-02-04T03:30:07;2.90;;;2.90;;
10096;SDS011;5087;42.662;23.466;2024-02-04T03:32:36;2.90;;;2.90;;
10096;SDS011;5087;42.662;23.466;2024-02-04T03:35:03;2.90;;;2.90;;
10096;SDS011;5087;42.662;23.466;2024-02-04T03:37:32;3.00;;;3.00;;
10096;SDS011;5087;42.662;23.466;2024-02-04T03:39:59;2.50;;;2.50;;
10096;SDS011;5087;42.662;23.466;2024-02-04T03:42:26;2.50;;;2.50;;
10096;SDS011;5087;42.662;23.466;2024-02-04T03:44:54;2.20;;;2.20;;
10096;SDS011;5087;42.662;23.466;2024-02-04T03:47:21;2.43;;;2.43;;
10096;SDS011;5087;42.662;23.466;2024-02-04T03:49:49;2.70;;;2.70;;
10096;SDS011;5087;42.662;23.466;2024-02-04T03:52:17;2.90;;;2.90;;
10096;SDS011;5087;42.662;23.466;2024-02-04T03:54:44;2.83;;;2.83;;
10096;SDS011;5087;42.662;23.466;2024-02-04T03:57:11;2.87;;;2.87;;
10096;SDS011;5087;42.662;23.466;2024-02-04T03:59:38;2.90;;;2.90;;
10096;SDS011;5087;42.662;23.466;2024-02-04T04:02:07;2.90;;;2.90;;
10096;SDS011;5087;42.662;23.466;2024-02-04T04:04:34;2.90;;;2.90;;
10096;SDS011;5087;42.662;23.466;2024-02-04T04:07:03;2.80;;;2.80;;
10096;SDS011;5087;42.662;23.466;2024-02-04T04:09:30;2.70;;;2.70;;
10096;SDS011;5087;42.662;23.466;2024-02-04T04:11:57;3.00;;;3.00;;
10096;SDS011;5087;42.662;23.466;2024-02-04T04:14:24;3.67;;;3.67;;
10096;SDS011;5087;42.662;23.466;2024-02-04T04:16:51;4.03;;;3.93;;
10096;SDS011;5087;42.662;23.466;2024-02-04T04:19:18;3.80;;;3.80;;
10096;SDS011;5087;42.662;23.466;2024-02-04T04:21:45;4.40;;;4.30;;
10096;SDS011;5087;42.662;23.466;2024-02-04T04:24:14;4.23;;;4.13;;
10096;SDS011;5087;42.662;23.466;2024-02-04T04:26:45;4.20;;;4.10;;
10096;SDS011;5087;42.662;23.466;2024-02-04T04:29:12;3.77;;;3.77;;
10096;SDS011;5087;42.662;23.466;2024-02-04T04:31:39;4.07;;;3.97;;
10096;SDS011;5087;42.662;23.466;2024-02-04T04:34:06;4.30;;;4.20;;
10096;SDS011;5087;42.662;23.466;2024-02-04T04:36:33;4.40;;;4.30;;
10096;SDS011;5087;42.662;23.466;2024-02-04T04:39:01;4.40;;;4.30;;
10096;SDS011;5087;42.662;23.466;2024-02-04T04:41:29;4.20;;;4.10;;
10096;SDS011;5087;42.662;23.466;2024-02-04T04:43:56;3.37;;;3.37;;
10096;SDS011;5087;42.662;23.466;2024-02-04T04:46:23;3.17;;;3.17;;
10096;SDS011;5087;42.662;23.466;2024-02-04T04:48:51;3.00;;;3.00;;
10096;SDS011;5087;42.662;23.466;2024-02-04T04:51:18;2.40;;;2.40;;
10096;SDS011;5087;42.662;23.466;2024-02-04T04:53:45;2.37;;;2.37;;
10096;SDS011;5087;42.662;23.466;2024-02-04T04:56:13;2.40;;;2.40;;
10096;SDS011;5087;42.662;23.466;2024-02-04T04:58:44;2.30;;;2.30;;
10096;SDS011;5087;42.662;23.466;2024-02-04T05:01:11;2.30;;;2.30;;
10096;SDS011;5087;42.662;23.466;2024-02-04T05:03:41;2.40;;;2.40;;
10096;SDS011;5087;42.662;23.466;2024-02-04T05:06:08;2.40;;;2.40;;
10096;SDS011;5087;42.662;23.466;2024-02-04T05:08:36;2.80;;;2.80;;
10096;SDS011;5087;42.662;23.466;2024-02-04T05:11:03;3.30;;;3.30;;
10096;SDS011;5087;42.662;23.466;2024-02-04T05:13:30;3.07;;;3.07;;
10096;SDS011;5087;42.662;23.466;2024-02-04T05:15:59;3.63;;;3.63;;
10096;SDS011;5087;42.662;23.466;2024-02-04T05:18:26;3.30;;;3.30;;
10096;SDS011;5087;42.662;23.466;2024-02-04T05:20:53;3.10;;;3.10;;
10096;SDS011;5087;42.662;23.466;2024-02-04T05:23:21;2.80;;;2.80;;
10096;SDS011;5087;42.662;23.466;2024-02-04T05:25:48;2.60;;;2.60;;
10096;SDS011;5087;42.662;23.466;2024-02-04T05:28:15;2.80;;;2.80;;
10096;SDS011;5087;42.662;23.466;2024-02-04T05:30:42;2.50;;;2.50;;
10096;SDS011;5087;42.662;23.466;2024-02-04T05:33:14;2.60;;;2.60;;
10096;SDS011;5087;42.662;23.466;2024-02-04T05:35:41;2.53;;;2.53;;
10096;SDS011;5087;42.662;23.466;2024-02-04T05:38:11;2.60;;;2.60;;
10096;SDS011;5087;42.662;23.466;2024-02-04T05:40:38;2.63;;;2.63;;
10096;SDS011;5087;42.662;23.466;2024-02-04T05:43:06;2.90;;;2.90;;
10096;SDS011;5087;42.662;23.466;2024-02-04T05:45:41;3.20;;;3.20;;
10096;SDS011;5087;42.662;23.466;2024-02-04T05:48:09;3.10;;;3.10;;
10096;SDS011;5087;42.662;23.466;2024-02-04T05:50:40;3.70;;;3.70;;
10096;SDS011;5087;42.662;23.466;2024-02-04T05:53:07;3.60;;;3.60;;
10096;SDS011;5087;42.662;23.466;2024-02-04T05:55:34;3.80;;;3.80;;
10096;SDS011;5087;42.662;23.466;2024-02-04T05:58:01;3.80;;;3.80;;
10096;SDS011;5087;42.662;23.466;2024-02-04T06:00:29;4.50;;;4.40;;
10096;SDS011;5087;42.662;23.466;2024-02-04T06:02:56;4.10;;;4.00;;
10096;SDS011;5087;42.662;23.466;2024-02-04T06:05:23;4.20;;;4.10;;
10096;SDS011;5087;42.662;23.466;2024-02-04T06:07:52;3.40;;;3.40;;
10096;SDS011;5087;42.662;23.466;2024-02-04T06:10:19;3.03;;;3.03;;
10096;SDS011;5087;42.662;23.466;2024-02-04T06:12:46;2.77;;;2.77;;
10096;SDS011;5087;42.662;23.466;2024-02-04T06:15:14;2.73;;;2.73;;
10096;SDS011;5087;42.662;23.466;2024-02-04T06:17:41;3.00;;;3.00;;
10096;SDS011;5087;42.662;23.466;2024-02-04T06:20:10;3.00;;;3.00;;
10096;SDS011;5087;42.662;23.466;2024-02-04T06:22:37;3.00;;;3.00;;
10096;SDS011;5087;42.662;23.466;2024-02-04T06:25:06;3.53;;;3.53;;
10096;SDS011;5087;42.662;23.466;2024-02-04T06:27:34;3.60;;;3.60;;
10096;SDS011;5087;42.662;23.466;2024-02-04T06:30:01;4.20;;;4.10;;
10096;SDS011;5087;42.662;23.466;2024-02-04T06:32:29;4.70;;;4.60;;
10096;SDS011;5087;42.662;23.466;2024-02-04T06:34:56;4.40;;;4.30;;
10096;SDS011;5087;42.662;23.466;2024-02-04T06:37:23;4.83;;;4.73;;
10096;SDS011;5087;42.662;23.466;2024-02-04T06:39:51;4.70;;;4.60;;
10096;SDS011;5087;42.662;23.466;2024-02-04T06:42:20;5.00;;;4.90;;
10096;SDS011;5087;42.662;23.466;2024-02-04T06:44:47;5.10;;;5.00;;
10096;SDS011;5087;42.662;23.466;2024-02-04T06:47:14;4.40;;;4.30;;
10096;SDS011;5087;42.662;23.466;2024-02-04T06:49:43;4.60;;;4.50;;
10096;SDS011;5087;42.662;23.466;2024-02-04T06:52:11;4.70;;;4.60;;
10096;SDS011;5087;42.662;23.466;2024-02-04T06:54:38;4.80;;;4.70;;
10096;SDS011;5087;42.662;23.466;2024-02-04T06:57:06;4.73;;;4.63;;
10096;SDS011;5087;42.662;23.466;2024-02-04T06:59:35;4.83;;;4.73;;
10096;SDS011;5087;42.662;23.466;2024-02-04T07:02:02;5.10;;;5.00;;
10096;SDS011;5087;42.662;23.466;2024-02-04T07:04:30;4.70;;;4.60;;
10096;SDS011;5087;42.662;23.466;2024-02-04T07:06:57;5.00;;;4.90;;
10096;SDS011;5087;42.662;23.466;2024-02-04T07:09:25;4.93;;;4.83;;
10096;SDS011;5087;42.662;23.466;2024-02-04T07:11:52;4.63;;;4.53;;
10096;SDS011;5087;42.662;23.466;2024-02-04T07:14:19;4.77;;;4.67;;
10096;SDS011;5087;42.662;23.466;2024-02-04T07:16:48;4.90;;;4.80;;
10096;SDS011;5087;42.662;23.466;2024-02-04T07:19:15;5.10;;;5.00;;
10096;SDS011;5087;42.662;23.466;2024-02-04T07:21:42;4.90;;;4.80;;
10096;SDS011;5087;42.662;23.466;2024-02-04T07:24:09;4.50;;;4.40;;
10096;SDS011;5087;42.662;23.466;2024-02-04T07:26:37;4.80;;;4.70;;
10096;SDS011;5087;42.662;23.466;2024-02-04T07:29:04;5.03;;;4.93;;
10096;SDS011;5087;42.662;23.466;2024-02-04T07:31:31;4.70;;;4.60;;
10096;SDS011;5087;42.662;23.466;2024-02-04T07:34:04;4.97;;;4.87;;
10096;SDS011;5087;42.662;23.466;2024-02-04T07:36:32;4.43;;;4.33;;
10096;SDS011;5087;42.662;23.466;2024-02-04T07:38:59;4.40;;;4.30;;
10096;SDS011;5087;42.662;23.466;2024-02-04T07:41:28;5.00;;;4.90;;
10096;SDS011;5087;42.662;23.466;2024-02-04T07:43:56;4.50;;;4.40;;
10096;SDS011;5087;42.662;23.466;2024-02-04T07:46:23;4.50;;;4.40;;
10096;SDS011;5087;42.662;23.466;2024-02-04T07:48:50;4.63;;;4.53;;
10096;SDS011;5087;42.662;23.466;2024-02-04T07:51:20;4.60;;;4.50;;
10096;SDS011;5087;42.662;23.466;2024-02-04T07:53:47;4.63;;;4.53;;
10096;SDS011;5087;42.662;23.466;2024-02-04T07:56:14;4.57;;;4.47;;
10096;SDS011;5087;42.662;23.466;2024-02-04T07:58:41;4.80;;;4.70;;
10096;SDS011;5087;42.662;23.466;2024-02-04T08:01:08;4.60;;;4.50;;
10096;SDS011;5087;42.662;23.466;2024-02-04T08:03:35;4.40;;;4.30;;
10096;SDS011;5087;42.662;23.466;2024-02-04T08:06:03;4.53;;;4.43;;
10096;SDS011;5087;42.662;23.466;2024-02-04T08:08:32;4.40;;;4.30;;
10096;SDS011;5087;42.662;23.466;2024-02-04T08:10:59;4.80;;;4.70;;
10096;SDS011;5087;42.662;23.466;2024-02-04T08:13:26;4.53;;;4.43;;
10096;SDS011;5087;42.662;23.466;2024-02-04T08:15:54;4.30;;;4.20;;
10096;SDS011;5087;42.662;23.466;2024-02-04T08:18:21;4.50;;;4.40;;
10096;SDS011;5087;42.662;23.466;2024-02-04T08:20:48;4.30;;;4.20;;
10096;SDS011;5087;42.662;23.466;2024-02-04T08:23:18;4.40;;;4.30;;
10096;SDS011;5087;42.662;23.466;2024-02-04T08:25:47;4.33;;;4.23;;
10096;SDS011;5087;42.662;23.466;2024-02-04T08:28:22;4.20;;;4.10;;
10096;SDS011;5087;42.662;23.466;2024-02-04T08:30:50;4.10;;;4.00;;
10096;SDS011;5087;42.662;23.466;2024-02-04T08:33:17;4.07;;;3.97;;
10096;SDS011;5087;42.662;23.466;2024-02-04T08:35:44;4.40;;;4.30;;
10096;SDS011;5087;42.662;23.466;2024-02-04T08:38:11;4.20;;;4.10;;
10096;SDS011;5087;42.662;23.466;2024-02-04T08:40:39;4.10;;;4.00;;
10096;SDS011;5087;42.662;23.466;2024-02-04T08:43:07;4.20;;;4.10;;
10096;SDS011;5087;42.662;23.466;2024-02-04T08:45:34;4.30;;;4.20;;
10096;SDS011;5087;42.662;23.466;2024-02-04T08:48:02;4.17;;;4.07;;
10096;SDS011;5087;42.662;23.466;2024-02-04T08:50:29;4.20;;;4.10;;
10096;SDS011;5087;42.662;23.466;2024-02-04T08:52:56;4.40;;;4.30;;
10096;SDS011;5087;42.662;23.466;2024-02-04T08:55:23;4.30;;;4.20;;
10096;SDS011;5087;42.662;23.466;2024-02-04T08:57:51;4.30;;;4.20;;
10096;SDS011;5087;42.662;23.466;2024-02-04T09:00:20;4.20;;;4.10;;
10096;SDS011;5087;42.662;23.466;2024-02-04T09:02:48;4.20;;;4.10;;
10096;SDS011;5087;42.662;23.466;2024-02-04T09:05:15;4.10;;;4.00;;
10096;SDS011;5087;42.662;23.466;2024-02-04T09:07:43;3.90;;;3.90;;
10096;SDS011;5087;42.662;23.466;2024-02-04T09:10:13;4.10;;;4.00;;
10096;SDS011;5087;42.662;23.466;2024-02-04T09:12:47;4.10;;;4.00;;
10096;SDS011;5087;42.662;23.466;2024-02-04T09:15:22;3.67;;;3.67;;
10096;SDS011;5087;42.662;23.466;2024-02-04T09:17:51;4.30;;;4.20;;
10096;SDS011;5087;42.662;23.466;2024-02-04T09:20:18;4.10;;;4.00;;
10096;SDS011;5087;42.662;23.466;2024-02-04T09:22:45;4.30;;;4.20;;
10096;SDS011;5087;42.662;23.466;2024-02-04T09:25:12;4.20;;;4.10;;
10096;SDS011;5087;42.662;23.466;2024-02-04T09:27:40;4.00;;;3.90;;
10096;SDS011;5087;42.662;23.466;2024-02-04T09:30:13;3.80;;;3.80;;
10096;SDS011;5087;42.662;23.466;2024-02-04T09:32:52;3.90;;;3.90;;
10096;SDS011;5087;42.662;23.466;2024-02-04T09:35:19;3.80;;;3.80;;
10096;SDS011;5087;42.662;23.466;2024-02-04T09:37:49;3.87;;;3.87;;
10096;SDS011;5087;42.662;23.466;2024-02-04T09:40:16;3.83;;;3.83;;
10096;SDS011;5087;42.662;23.466;2024-02-04T09:42:44;3.50;;;3.50;;
10096;SDS011;5087;42.662;23.466;2024-02-04T09:45:11;3.60;;;3.60;;
10096;SDS011;5087;42.662;23.466;2024-02-04T09:47:42;3.60;;;3.60;;
10096;SDS011;5087;42.662;23.466;2024-02-04T09:50:11;3.87;;;3.87;;
10096;SDS011;5087;42.662;23.466;2024-02-04T09:52:39;3.90;;;3.90;;
10096;SDS011;5087;42.662;23.466;2024-02-04T09:55:13;3.73;;;3.73;;
10096;SDS011;5087;42.662;23.466;2024-02-04T09:57:43;4.17;;;4.07;;
10096;SDS011;5087;42.662;23.466;2024-02-04T10:00:11;4.00;;;3.93;;
10096;SDS011;5087;42.662;23.466;2024-02-04T10:02:39;4.00;;;3.90;;
10096;SDS011;5087;42.662;23.466;2024-02-04T10:05:09;4.10;;;4.00;;
10096;SDS011;5087;42.662;23.466;2024-02-04T10:07:36;4.30;;;4.20;;
10096;SDS011;5087;42.662;23.466;2024-02-04T10:10:04;3.80;;;3.80;;
10096;SDS011;5087;42.662;23.466;2024-02-04T10:12:31;4.17;;;4.07;;
10096;SDS011;5087;42.662;23.466;2024-02-04T10:15:01;3.80;;;3.80;;
10096;SDS011;5087;42.662;23.466;2024-02-04T10:17:30;4.20;;;4.10;;
10096;SDS011;5087;42.662;23.466;2024-02-04T10:19:59;4.03;;;3.93;;
10096;SDS011;5087;42.662;23.466;2024-02-04T10:22:27;3.70;;;3.70;;
10096;SDS011;5087;42.662;23.466;2024-02-04T10:24:54;3.60;;;3.60;;
10096;SDS011;5087;42.662;23.466;2024-02-04T10:27:32;4.07;;;3.97;;
10096;SDS011;5087;42.662;23.466;2024-02-04T10:30:01;4.20;;;4.10;;
10096;SDS011;5087;42.662;23.466;2024-02-04T10:32:30;3.77;;;3.77;;
10096;SDS011;5087;42.662;23.466;2024-02-04T10:34:59;3.70;;;3.70;;
10096;SDS011;5087;42.662;23.466;2024-02-04T10:37:27;3.80;;;3.80;;
10096;SDS011;5087;42.662;23.466;2024-02-04T10:39:55;3.67;;;3.67;;
10096;SDS011;5087;42.662;23.466;2024-02-04T10:42:23;3.60;;;3.60;;
10096;SDS011;5087;42.662;23.466;2024-02-04T10:44:52;3.90;;;3.90;;
10096;SDS011;5087;42.662;23.466;2024-02-04T10:47:22;4.20;;;4.10;;
10096;SDS011;5087;42.662;23.466;2024-02-04T10:49:50;3.83;;;3.83;;
10096;SDS011;5087;42.662;23.466;2024-02-04T10:52:21;3.90;;;3.90;;
10096;SDS011;5087;42.662;23.466;2024-02-04T10:54:50;3.80;;;3.80;;
10096;SDS011;5087;42.662;23.466;2024-02-04T10:57:23;3.70;;;3.70;;
10096;SDS011;5087;42.662;23.466;2024-02-04T10:59:52;3.67;;;3.67;;
10096;SDS011;5087;42.662;23.466;2024-02-04T11:02:20;3.70;;;3.70;;
10096;SDS011;5087;42.662;23.466;2024-02-04T11:04:48;3.57;;;3.57;;
10096;SDS011;5087;42.662;23.466;2024-02-04T11:07:15;3.93;;;3.90;;
10096;SDS011;5087;42.662;23.466;2024-02-04T11:09:46;3.70;;;3.70;;
10096;SDS011;5087;42.662;23.466;2024-02-04T11:12:16;3.80;;;3.80;;
10096;SDS011;5087;42.662;23.466;2024-02-04T11:14:46;3.80;;;3.80;;
10096;SDS011;5087;42.662;23.466;2024-02-04T11:17:24;4.20;;;4.10;;
10096;SDS011;5087;42.662;23.466;2024-02-04T11:20:16;3.73;;;3.73;;
10096;SDS011;5087;42.662;23.466;2024-02-04T11:23:02;3.80;;;3.80;;
10096;SDS011;5087;42.662;23.466;2024-02-04T11:25:46;3.60;;;3.60;;
10096;SDS011;5087;42.662;23.466;2024-02-04T11:28:16;3.57;;;3.57;;
10096;SDS011;5087;42.662;23.466;2024-02-04T11:30:47;3.50;;;3.50;;
10096;SDS011;5087;42.662;23.466;2024-02-04T11:33:17;3.40;;;3.40;;
10096;SDS011;5087;42.662;23.466;2024-02-04T11:36:00;3.40;;;3.40;;
10096;SDS011;5087;42.662;23.466;2024-02-04T11:38:31;3.23;;;3.23;;
10096;SDS011;5087;42.662;23.466;2024-02-04T11:41:05;3.30;;;3.30;;
10096;SDS011;5087;42.662;23.466;2024-02-04T11:43:34;3.30;;;3.30;;
10096;SDS011;5087;42.662;23.466;2024-02-04T11:46:07;3.50;;;3.50;;
10096;SDS011;5087;42.662;23.466;2024-02-04T11:49:16;3.57;;;3.57;;
10096;SDS011;5087;42.662;23.466;2024-02-04T11:51:45;3.30;;;3.30;;
10096;SDS011;5087;42.662;23.466;2024-02-04T11:54:25;3.30;;;3.30;;
10096;SDS011;5087;42.662;23.466;2024-02-04T11:56:54;3.40;;;3.40;;
10096;SDS011;5087;42.662;23.466;2024-02-04T11:59:23;3.50;;;3.50;;
10096;SDS011;5087;42.662;23.466;2024-02-04T12:01:55;3.30;;;3.30;;
10096;SDS011;5087;42.662;23.466;2024-02-04T12:04:27;3.30;;;3.30;;
10096;SDS011;5087;42.662;23.466;2024-02-04T12:07:14;3.10;;;3.10;;
10096;SDS011;5087;42.662;23.466;2024-02-04T12:09:48;2.97;;;2.97;;
10096;SDS011;5087;42.662;23.466;2024-02-04T12:12:18;2.90;;;2.90;;
10096;SDS011;5087;42.662;23.466;2024-02-04T12:14:46;3.30;;;3.30;;
10096;SDS011;5087;42.662;23.466;2024-02-04T12:17:14;3.10;;;3.10;;
10096;SDS011;5087;42.662;23.466;2024-02-04T12:19:48;2.90;;;2.90;;
10096;SDS011;5087;42.662;23.466;2024-02-04T12:22:15;2.87;;;2.87;;
10096;SDS011;5087;42.662;23.466;2024-02-04T12:24:42;2.90;;;2.90;;
10096;SDS011;5087;42.662;23.466;2024-02-04T12:27:10;3.10;;;3.10;;
10096;SDS011;5087;42.662;23.466;2024-02-04T12:29:43;2.53;;;2.53;;
10096;SDS011;5087;42.662;23.466;2024-02-04T12:32:13;2.77;;;2.77;;
10096;SDS011;5087;42.662;23.466;2024-02-04T12:43:21;3.00;;;3.00;;
10096;SDS011;5087;42.662;23.466;2024-02-04T12:45:49;2.80;;;2.80;;
10096;SDS011;5087;42.662;23.466;2024-02-04T12:48:19;2.80;;;2.80;;
10096;SDS011;5087;42.662;23.466;2024-02-04T12:51:09;2.73;;;2.73;;
10096;SDS011;5087;42.662;23.466;2024-02-04T12:53:41;3.30;;;3.30;;
10096;SDS011;5087;42.662;23.466;2024-02-04T12:56:08;2.60;;;2.60;;
10096;SDS011;5087;42.662;23.466;2024-02-04T12:58:41;2.80;;;2.80;;
10096;SDS011;5087;42.662;23.466;2024-02-04T13:01:13;3.30;;;3.30;;
10096;SDS011;5087;42.662;23.466;2024-02-04T13:03:40;2.90;;;2.90;;
10096;SDS011;5087;42.662;23.466;2024-02-04T13:06:16;2.70;;;2.70;;
10096;SDS011;5087;42.662;23.466;2024-02-04T13:08:44;2.80;;;2.80;;
10096;SDS011;5087;42.662;23.466;2024-02-04T13:11:19;2.70;;;2.70;;
10096;SDS011;5087;42.662;23.466;2024-02-04T13:13:46;2.70;;;2.70;;
10096;SDS011;5087;42.662;23.466;2024-02-04T13:16:14;3.00;;;3.00;;
10096;SDS011;5087;42.662;23.466;2024-02-04T13:18:42;2.90;;;2.90;;
10096;SDS011;5087;42.662;23.466;2024-02-04T13:21:09;3.10;;;3.10;;
10096;SDS011;5087;42.662;23.466;2024-02-04T13:23:49;3.10;;;3.10;;
10096;SDS011;5087;42.662;23.466;2024-02-04T13:26:28;2.70;;;2.70;;
10096;SDS011;5087;42.662;23.466;2024-02-04T13:28:56;2.70;;;2.70;;
10096;SDS011;5087;42.662;23.466;2024-02-04T13:31:24;2.73;;;2.73;;
10096;SDS011;5087;42.662;23.466;2024-02-04T13:33:53;2.70;;;2.70;;
10096;SDS011;5087;42.662;23.466;2024-02-04T13:36:20;2.90;;;2.90;;
10096;SDS011;5087;42.662;23.466;2024-02-04T13:38:48;2.80;;;2.80;;
10096;SDS011;5087;42.662;23.466;2024-02-04T13:41:15;2.70;;;2.70;;
10096;SDS011;5087;42.662;23.466;2024-02-04T13:43:43;2.50;;;2.50;;
10096;SDS011;5087;42.662;23.466;2024-02-04T13:46:10;2.80;;;2.80;;
10096;SDS011;5087;42.662;23.466;2024-02-04T13:48:39;2.80;;;2.80;;
10096;SDS011;5087;42.662;23.466;2024-02-04T13:51:08;2.60;;;2.60;;
10096;SDS011;5087;42.662;23.466;2024-02-04T13:53:35;2.60;;;2.60;;
10096;SDS011;5087;42.662;23.466;2024-02-04T13:56:11;3.17;;;3.17;;
10096;SDS011;5087;42.662;23.466;2024-02-04T13:58:39;2.80;;;2.80;;
10096;SDS011;5087;42.662;23.466;2024-02-04T14:01:21;3.00;;;3.00;;
10096;SDS011;5087;42.662;23.466;2024-02-04T14:03:52;3.00;;;3.00;;
10096;SDS011;5087;42.662;23.466;2024-02-04T14:06:23;2.80;;;2.80;;
10096;SDS011;5087;42.662;23.466;2024-02-04T14:08:50;2.63;;;2.63;;
10096;SDS011;5087;42.662;23.466;2024-02-04T14:11:17;3.13;;;3.13;;
10096;SDS011;5087;42.662;23.466;2024-02-04T14:13:46;2.30;;;2.30;;
10096;SDS011;5087;42.662;23.466;2024-02-04T14:16:26;2.50;;;2.50;;
10096;SDS011;5087;42.662;23.466;2024-02-04T14:18:55;2.57;;;2.57;;
10096;SDS011;5087;42.662;23.466;2024-02-04T14:21:23;2.70;;;2.70;;
10096;SDS011;5087;42.662;23.466;2024-02-04T14:23:50;2.50;;;2.50;;
10096;SDS011;5087;42.662;23.466;2024-02-04T14:26:17;2.50;;;2.50;;
10096;SDS011;5087;42.662;23.466;2024-02-04T14:28:45;2.80;;;2.80;;
10096;SDS011;5087;42.662;23.466;2024-02-04T14:31:12;2.50;;;2.50;;
10096;SDS011;5087;42.662;23.466;2024-02-04T14:33:40;2.80;;;2.80;;
10096;SDS011;5087;42.662;23.466;2024-02-04T14:43:33;2.80;;;2.80;;
10096;SDS011;5087;42.662;23.466;2024-02-04T14:50:58;2.77;;;2.77;;
10096;SDS011;5087;42.662;23.466;2024-02-04T14:53:27;2.90;;;2.90;;
10096;SDS011;5087;42.662;23.466;2024-02-04T14:58:52;2.80;;;2.80;;
10096;SDS011;5087;42.662;23.466;2024-02-04T15:01:20;2.80;;;2.80;;
10096;SDS011;5087;42.662;23.466;2024-02-04T15:03:47;2.83;;;2.83;;
10096;SDS011;5087;42.662;23.466;2024-02-04T15:06:35;2.90;;;2.90;;
10096;SDS011;5087;42.662;23.466;2024-02-04T15:09:31;2.70;;;2.70;;
10096;SDS011;5087;42.662;23.466;2024-02-04T15:12:39;2.73;;;2.73;;
10096;SDS011;5087;42.662;23.466;2024-02-04T15:15:14;2.90;;;2.90;;
10096;SDS011;5087;42.662;23.466;2024-02-04T15:17:42;2.67;;;2.67;;
10096;SDS011;5087;42.662;23.466;2024-02-04T15:20:10;3.10;;;3.10;;
10096;SDS011;5087;42.662;23.466;2024-02-04T15:22:44;2.90;;;2.90;;
10096;SDS011;5087;42.662;23.466;2024-02-04T15:25:12;3.00;;;3.00;;